createdAt,value
2023-04-15T00:00:09.155Z,0
2023-04-15T00:00:39.176Z,0
2023-04-15T00:01:09.174Z,0
2023-04-15T00:01:39.194Z,0
2023-04-15T00:02:09.230Z,0
2023-04-15T00:02:39.262Z,0
2023-04-15T00:03:09.324Z,0
2023-04-15T00:03:39.402Z,0
2023-04-15T00:04:09.225Z,0
2023-04-15T00:04:39.304Z,0
2023-04-15T00:05:09.211Z,0
2023-04-15T00:05:39.252Z,0
2023-04-15T00:06:09.231Z,0
2023-04-15T00:06:39.379Z,0
2023-04-15T00:07:09.255Z,0
2023-04-15T00:07:39.261Z,0
2023-04-15T00:08:09.271Z,0
2023-04-15T00:08:39.292Z,0
2023-04-15T00:09:39.287Z,0
2023-04-15T00:10:09.287Z,0
2023-04-15T00:10:39.296Z,0
2023-04-15T00:11:09.310Z,0
2023-04-15T00:11:39.304Z,0
2023-04-15T00:12:09.320Z,0
2023-04-15T00:12:39.346Z,0
2023-04-15T00:13:09.333Z,0
2023-04-15T00:13:39.333Z,0
2023-04-15T00:14:09.335Z,0
2023-04-15T00:14:39.401Z,0
2023-04-15T00:15:09.349Z,0
2023-04-15T00:15:39.362Z,0
2023-04-15T00:16:09.368Z,0
2023-04-15T00:16:39.398Z,0
2023-04-15T00:17:09.373Z,0
2023-04-15T00:17:39.416Z,0
2023-04-15T00:18:09.399Z,0
2023-04-15T00:18:39.408Z,0
2023-04-15T00:19:09.423Z,0
2023-04-15T00:19:39.413Z,0
2023-04-15T00:20:09.424Z,0
2023-04-15T00:20:39.434Z,0
2023-04-15T00:21:09.435Z,0
2023-04-15T00:21:39.447Z,0
2023-04-15T00:22:09.465Z,0
2023-04-15T00:22:39.461Z,0
2023-04-15T00:23:09.482Z,0
2023-04-15T00:23:39.471Z,0
2023-04-15T00:24:09.492Z,0
2023-04-15T00:24:39.478Z,0
2023-04-15T00:25:09.487Z,0
2023-04-15T00:25:39.501Z,0
2023-04-15T00:26:09.498Z,0
2023-04-15T00:26:39.511Z,0
2023-04-15T00:27:09.509Z,0
2023-04-15T00:27:39.561Z,0
2023-04-15T00:28:09.530Z,0
2023-04-15T00:28:39.525Z,0
2023-04-15T00:29:09.544Z,0
2023-04-15T00:29:39.554Z,0
2023-04-15T00:30:09.574Z,0
2023-04-15T00:30:39.610Z,0
2023-04-15T00:31:09.599Z,0
2023-04-15T00:31:39.576Z,0
2023-04-15T00:32:09.579Z,0
2023-04-15T00:32:39.608Z,0
2023-04-15T00:33:09.593Z,0
2023-04-15T00:33:39.596Z,0
2023-04-15T00:34:09.617Z,0
2023-04-15T00:34:39.622Z,0
2023-04-15T00:35:09.619Z,0
2023-04-15T00:35:39.620Z,0
2023-04-15T00:36:09.642Z,0
2023-04-15T00:36:39.652Z,0
2023-04-15T00:37:09.649Z,0
2023-04-15T00:37:39.654Z,0
2023-04-15T00:38:09.654Z,0
2023-04-15T00:38:39.669Z,0
2023-04-15T00:39:09.681Z,0
2023-04-15T00:39:39.694Z,0
2023-04-15T00:40:09.689Z,0
2023-04-15T00:40:39.707Z,0
2023-04-15T00:41:09.716Z,0
2023-04-15T00:41:39.714Z,0
2023-04-15T00:42:09.718Z,0
2023-04-15T00:42:39.729Z,0
2023-04-15T00:43:09.731Z,0
2023-04-15T00:43:39.746Z,0
2023-04-15T00:44:09.746Z,0
2023-04-15T00:44:39.742Z,0
2023-04-15T00:45:39.798Z,0
2023-04-15T00:46:09.792Z,0
2023-04-15T00:46:39.789Z,0
2023-04-15T00:47:09.792Z,0
2023-04-15T00:47:39.805Z,0
2023-04-15T00:48:09.818Z,0
2023-04-15T00:48:39.809Z,0
2023-04-15T00:49:09.815Z,0
2023-04-15T00:49:39.817Z,0
2023-04-15T00:50:09.820Z,0
2023-04-15T00:50:39.832Z,0
2023-04-15T00:51:09.909Z,0
2023-04-15T00:51:39.846Z,0
2023-04-15T00:52:09.856Z,0
2023-04-15T00:52:39.856Z,0
2023-04-15T00:53:09.868Z,0
2023-04-15T00:53:39.873Z,0
2023-04-15T00:54:09.876Z,0
2023-04-15T00:54:39.890Z,0
2023-04-15T00:55:09.892Z,0
2023-04-15T00:55:39.907Z,0
2023-04-15T00:56:09.903Z,0
2023-04-15T00:56:39.911Z,0
2023-04-15T00:57:09.908Z,0
2023-04-15T00:57:39.938Z,0
2023-04-15T00:58:09.930Z,0
2023-04-15T00:58:39.937Z,0
2023-04-15T00:59:09.935Z,0
2023-04-15T00:59:39.958Z,0
2023-04-15T01:00:09.958Z,0
2023-04-15T01:00:39.953Z,0
2023-04-15T01:01:09.983Z,0
2023-04-15T01:01:39.982Z,0
2023-04-15T01:02:10.139Z,0
2023-04-15T01:02:40.157Z,0
2023-04-15T01:03:10.108Z,0
2023-04-15T01:03:40.192Z,0
2023-04-15T01:04:10.050Z,0
2023-04-15T01:04:40.018Z,0
2023-04-15T01:05:10.018Z,0
2023-04-15T01:05:40.022Z,0
2023-04-15T01:06:10.036Z,0
2023-04-15T01:06:40.047Z,0
2023-04-15T01:07:10.064Z,0
2023-04-15T01:07:40.120Z,0
2023-04-15T01:08:40.068Z,0
2023-04-15T01:09:10.076Z,0
2023-04-15T01:09:40.094Z,0
2023-04-15T01:10:10.106Z,0
2023-04-15T01:10:40.102Z,0
2023-04-15T01:11:40.106Z,0
2023-04-15T01:12:10.107Z,0
2023-04-15T01:12:40.117Z,0
2023-04-15T01:13:10.143Z,0
2023-04-15T01:13:40.147Z,0
2023-04-15T01:14:10.137Z,0
2023-04-15T01:14:40.151Z,0
2023-04-15T01:15:10.143Z,0
2023-04-15T01:15:40.166Z,0
2023-04-15T01:16:10.255Z,0
2023-04-15T01:16:40.183Z,0
2023-04-15T01:17:10.184Z,0
2023-04-15T01:17:40.274Z,0
2023-04-15T01:18:10.190Z,0
2023-04-15T01:18:40.200Z,0
2023-04-15T01:19:10.218Z,0
2023-04-15T01:19:40.230Z,0
2023-04-15T01:20:10.215Z,0
2023-04-15T01:20:40.237Z,0
2023-04-15T01:21:10.221Z,0
2023-04-15T01:21:40.238Z,0
2023-04-15T01:22:10.249Z,0
2023-04-15T01:22:40.251Z,0
2023-04-15T01:23:10.255Z,0
2023-04-15T01:23:40.288Z,0
2023-04-15T01:24:10.280Z,0
2023-04-15T01:24:40.293Z,0
2023-04-15T01:25:10.285Z,0
2023-04-15T01:25:40.300Z,0
2023-04-15T01:26:10.304Z,0
2023-04-15T01:26:40.484Z,0
2023-04-15T01:27:10.321Z,0
2023-04-15T01:27:40.316Z,0
2023-04-15T01:28:10.323Z,0
2023-04-15T01:28:40.358Z,0
2023-04-15T01:29:10.333Z,0
2023-04-15T01:29:40.345Z,0
2023-04-15T01:30:10.342Z,0
2023-04-15T01:30:40.355Z,0
2023-04-15T01:31:10.405Z,0
2023-04-15T01:31:40.393Z,0
2023-04-15T01:32:40.408Z,0
2023-04-15T01:33:10.390Z,0
2023-04-15T01:33:40.396Z,0
2023-04-15T01:34:10.401Z,0
2023-04-15T01:34:40.420Z,0
2023-04-15T01:35:10.418Z,0
2023-04-15T01:35:40.429Z,0
2023-04-15T01:36:10.434Z,0
2023-04-15T01:36:40.440Z,0
2023-04-15T01:37:10.434Z,0
2023-04-15T01:37:40.456Z,0
2023-04-15T01:38:10.468Z,0
2023-04-15T01:38:40.462Z,0
2023-04-15T01:39:10.500Z,0
2023-04-15T01:39:40.477Z,0
2023-04-15T01:40:40.491Z,0
2023-04-15T01:41:10.508Z,0
2023-04-15T01:41:40.502Z,0
2023-04-15T01:42:40.511Z,0
2023-04-15T01:43:10.524Z,0
2023-04-15T01:43:40.536Z,0
2023-04-15T01:44:10.536Z,0
2023-04-15T01:44:40.562Z,0
2023-04-15T01:45:10.548Z,0
2023-04-15T01:45:40.572Z,0
2023-04-15T01:46:10.571Z,0
2023-04-15T01:46:40.616Z,0
2023-04-15T01:47:10.576Z,0
2023-04-15T01:47:40.628Z,0
2023-04-15T01:48:10.595Z,0
2023-04-15T01:48:40.605Z,0
2023-04-15T01:49:10.608Z,0
2023-04-15T01:49:40.612Z,0
2023-04-15T01:50:10.616Z,0
2023-04-15T01:50:40.641Z,0
2023-04-15T01:51:10.618Z,0
2023-04-15T01:51:40.630Z,0
2023-04-15T01:52:10.648Z,0
2023-04-15T01:52:40.665Z,0
2023-04-15T01:53:40.683Z,0
2023-04-15T01:54:10.662Z,0
2023-04-15T01:54:40.704Z,0
2023-04-15T01:55:10.687Z,0
2023-04-15T01:55:40.697Z,0
2023-04-15T01:56:10.697Z,0
2023-04-15T01:56:40.702Z,0
2023-04-15T01:57:10.697Z,0
2023-04-15T01:57:40.724Z,0
2023-04-15T01:58:10.717Z,0
2023-04-15T01:58:40.730Z,0
2023-04-15T01:59:10.745Z,0
2023-04-15T01:59:40.753Z,0
2023-04-15T02:00:10.750Z,0
2023-04-15T02:00:40.776Z,0
2023-04-15T02:01:10.771Z,0
2023-04-15T02:01:40.768Z,0
2023-04-15T02:02:10.840Z,0
2023-04-15T02:02:40.906Z,0
2023-04-15T02:03:10.846Z,0
2023-04-15T02:03:40.879Z,0
2023-04-15T02:04:10.913Z,0
2023-04-15T02:04:40.811Z,0
2023-04-15T02:05:10.825Z,0
2023-04-15T02:05:40.824Z,0
2023-04-15T02:06:40.829Z,0
2023-04-15T02:07:10.835Z,0
2023-04-15T02:07:40.864Z,0
2023-04-15T02:08:10.857Z,0
2023-04-15T02:08:40.866Z,0
2023-04-15T02:09:10.872Z,0
2023-04-15T02:09:40.878Z,0
2023-04-15T02:10:10.913Z,0
2023-04-15T02:10:40.907Z,0
2023-04-15T02:11:10.897Z,0
2023-04-15T02:11:40.897Z,0
2023-04-15T02:12:10.909Z,0
2023-04-15T02:12:40.915Z,0
2023-04-15T02:13:10.920Z,0
2023-04-15T02:13:40.933Z,0
2023-04-15T02:14:10.935Z,0
2023-04-15T02:14:40.936Z,0
2023-04-15T02:15:10.947Z,0
2023-04-15T02:15:40.964Z,0
2023-04-15T02:16:10.976Z,0
2023-04-15T02:16:40.997Z,0
2023-04-15T02:17:10.978Z,0
2023-04-15T02:17:41.007Z,0
2023-04-15T02:18:10.991Z,0
2023-04-15T02:18:41.004Z,0
2023-04-15T02:19:11.004Z,0
2023-04-15T02:19:41.008Z,0
2023-04-15T02:20:11.022Z,0
2023-04-15T02:20:41.021Z,0
2023-04-15T02:21:11.029Z,0
2023-04-15T02:21:41.028Z,0
2023-04-15T02:22:11.037Z,0
2023-04-15T02:22:41.054Z,0
2023-04-15T02:23:11.049Z,0
2023-04-15T02:23:41.074Z,0
2023-04-15T02:24:11.069Z,0
2023-04-15T02:24:41.074Z,0
2023-04-15T02:25:11.080Z,0
2023-04-15T02:25:41.116Z,0
2023-04-15T02:26:11.093Z,0
2023-04-15T02:26:41.106Z,0
2023-04-15T02:27:11.106Z,0
2023-04-15T02:27:41.121Z,0
2023-04-15T02:28:11.114Z,0
2023-04-15T02:28:41.129Z,0
2023-04-15T02:29:11.134Z,0
2023-04-15T02:29:41.142Z,0
2023-04-15T02:30:11.141Z,0
2023-04-15T02:30:41.164Z,0
2023-04-15T02:31:11.159Z,0
2023-04-15T02:31:41.187Z,0
2023-04-15T02:32:11.200Z,0
2023-04-15T02:32:41.215Z,0
2023-04-15T02:33:11.180Z,0
2023-04-15T02:33:41.201Z,0
2023-04-15T02:34:11.203Z,0
2023-04-15T02:34:41.201Z,0
2023-04-15T02:35:11.209Z,0
2023-04-15T02:35:41.219Z,0
2023-04-15T02:36:11.224Z,0
2023-04-15T02:36:41.243Z,0
2023-04-15T02:37:11.240Z,0
2023-04-15T02:37:41.251Z,0
2023-04-15T02:38:11.251Z,0
2023-04-15T02:38:41.263Z,0
2023-04-15T02:39:11.263Z,0
2023-04-15T02:39:41.268Z,0
2023-04-15T02:40:11.280Z,0
2023-04-15T02:40:41.282Z,0
2023-04-15T02:41:11.285Z,0
2023-04-15T02:41:41.310Z,0
2023-04-15T02:42:11.302Z,0
2023-04-15T02:42:41.316Z,0
2023-04-15T02:43:11.312Z,0
2023-04-15T02:43:41.338Z,0
2023-04-15T02:44:11.699Z,0
2023-04-15T02:44:41.346Z,0
2023-04-15T02:45:11.348Z,0
2023-04-15T02:45:41.361Z,0
2023-04-15T02:46:11.508Z,0
2023-04-15T02:46:41.363Z,0
2023-04-15T02:47:11.365Z,0
2023-04-15T02:47:41.447Z,0
2023-04-15T02:48:11.385Z,0
2023-04-15T02:48:41.388Z,0
2023-04-15T02:49:11.390Z,0
2023-04-15T02:49:41.401Z,0
2023-04-15T02:50:11.409Z,0
2023-04-15T02:50:41.419Z,0
2023-04-15T02:51:11.417Z,0
2023-04-15T02:51:41.432Z,0
2023-04-15T02:52:11.434Z,0
2023-04-15T02:52:41.443Z,0
2023-04-15T02:53:11.458Z,0
2023-04-15T02:53:41.459Z,0
2023-04-15T02:54:11.454Z,0
2023-04-15T02:54:41.464Z,0
2023-04-15T02:55:11.465Z,0
2023-04-15T02:55:41.481Z,0
2023-04-15T02:56:11.478Z,0
2023-04-15T02:56:41.502Z,0
2023-04-15T02:57:11.500Z,0
2023-04-15T02:57:41.511Z,0
2023-04-15T02:58:11.515Z,0
2023-04-15T02:58:41.514Z,0
2023-04-15T02:59:11.531Z,0
2023-04-15T02:59:41.552Z,0
2023-04-15T03:00:11.550Z,0
2023-04-15T03:00:41.551Z,0
2023-04-15T03:01:11.576Z,0
2023-04-15T03:01:41.587Z,0
2023-04-15T03:02:11.611Z,0
2023-04-15T03:02:41.771Z,0
2023-04-15T03:03:11.648Z,0
2023-04-15T03:03:41.632Z,0
2023-04-15T03:04:11.728Z,0
2023-04-15T03:04:41.612Z,0
2023-04-15T03:05:11.599Z,0
2023-04-15T03:05:41.609Z,0
2023-04-15T03:06:11.617Z,0
2023-04-15T03:06:41.662Z,0
2023-04-15T03:07:11.655Z,0
2023-04-15T03:07:41.635Z,0
2023-04-15T03:08:11.635Z,0
2023-04-15T03:08:41.650Z,0
2023-04-15T03:09:11.661Z,0
2023-04-15T03:09:41.657Z,0
2023-04-15T03:10:41.686Z,0
2023-04-15T03:11:11.691Z,0
2023-04-15T03:11:41.686Z,0
2023-04-15T03:12:41.712Z,0
2023-04-15T03:13:11.712Z,0
2023-04-15T03:13:41.735Z,0
2023-04-15T03:14:11.723Z,0
2023-04-15T03:14:41.742Z,0
2023-04-15T03:15:11.745Z,0
2023-04-15T03:15:41.747Z,0
2023-04-15T03:16:11.772Z,0
2023-04-15T03:16:41.752Z,0
2023-04-15T03:17:11.758Z,0
2023-04-15T03:17:41.806Z,0
2023-04-15T03:18:11.771Z,0
2023-04-15T03:18:41.777Z,0
2023-04-15T03:19:11.776Z,0
2023-04-15T03:19:41.784Z,0
2023-04-15T03:20:11.852Z,0
2023-04-15T03:20:41.818Z,0
2023-04-15T03:21:11.810Z,0
2023-04-15T03:21:41.822Z,0
2023-04-15T03:22:11.841Z,0
2023-04-15T03:22:41.845Z,0
2023-04-15T03:23:11.835Z,0
2023-04-15T03:23:41.848Z,0
2023-04-15T03:24:11.853Z,0
2023-04-15T03:24:41.854Z,0
2023-04-15T03:25:11.914Z,0
2023-04-15T03:25:41.872Z,0
2023-04-15T03:26:41.883Z,0
2023-04-15T03:27:11.872Z,0
2023-04-15T03:27:41.979Z,0
2023-04-15T03:28:11.902Z,0
2023-04-15T03:28:41.907Z,0
2023-04-15T03:29:11.915Z,0
2023-04-15T03:29:41.928Z,0
2023-04-15T03:30:11.925Z,0
2023-04-15T03:30:41.954Z,0
2023-04-15T03:31:11.960Z,0
2023-04-15T03:31:41.961Z,0
2023-04-15T03:32:11.958Z,0
2023-04-15T03:32:42.011Z,0
2023-04-15T03:33:12.000Z,0
2023-04-15T03:33:41.984Z,0
2023-04-15T03:34:11.984Z,0
2023-04-15T03:34:41.995Z,0
2023-04-15T03:35:11.994Z,0
2023-04-15T03:35:42.003Z,0
2023-04-15T03:36:12.014Z,0
2023-04-15T03:36:42.028Z,0
2023-04-15T03:37:12.028Z,0
2023-04-15T03:37:42.036Z,0
2023-04-15T03:38:12.033Z,0
2023-04-15T03:38:42.053Z,0
2023-04-15T03:39:12.051Z,0
2023-04-15T03:39:42.062Z,0
2023-04-15T03:40:12.075Z,0
2023-04-15T03:40:42.082Z,0
2023-04-15T03:41:12.093Z,0
2023-04-15T03:41:42.088Z,0
2023-04-15T03:42:12.084Z,0
2023-04-15T03:42:42.116Z,0
2023-04-15T03:43:12.128Z,0
2023-04-15T03:43:42.134Z,0
2023-04-15T03:44:42.128Z,0
2023-04-15T03:45:12.134Z,0
2023-04-15T03:45:42.148Z,0
2023-04-15T03:46:12.161Z,0
2023-04-15T03:46:42.188Z,0
2023-04-15T03:47:12.158Z,0
2023-04-15T03:47:42.209Z,0
2023-04-15T03:48:18.496Z,0
2023-04-15T03:48:42.169Z,0
2023-04-15T03:49:12.191Z,0
2023-04-15T03:49:42.190Z,0
2023-04-15T03:50:12.203Z,0
2023-04-15T03:50:42.210Z,0
2023-04-15T03:51:12.208Z,0
2023-04-15T03:51:42.237Z,0
2023-04-15T03:52:12.230Z,0
2023-04-15T03:52:42.235Z,0
2023-04-15T03:53:12.266Z,0
2023-04-15T03:53:42.261Z,0
2023-04-15T03:54:12.256Z,0
2023-04-15T03:54:42.262Z,0
2023-04-15T03:55:12.270Z,0
2023-04-15T03:55:42.271Z,0
2023-04-15T03:56:12.276Z,0
2023-04-15T03:56:42.287Z,0
2023-04-15T03:57:12.285Z,0
2023-04-15T03:57:42.307Z,0
2023-04-15T03:58:12.310Z,0
2023-04-15T03:58:42.319Z,0
2023-04-15T03:59:12.317Z,0
2023-04-15T03:59:42.328Z,0
2023-04-15T04:00:12.355Z,0
2023-04-15T04:00:42.347Z,0
2023-04-15T04:01:12.342Z,0
2023-04-15T04:01:42.388Z,0
2023-04-15T04:02:12.399Z,0
2023-04-15T04:02:42.509Z,0
2023-04-15T04:03:42.545Z,0
2023-04-15T04:04:12.455Z,0
2023-04-15T04:04:42.510Z,0
2023-04-15T04:05:12.961Z,0
2023-04-15T04:05:42.414Z,0
2023-04-15T04:06:42.426Z,0
2023-04-15T04:07:12.422Z,0
2023-04-15T04:07:42.434Z,0
2023-04-15T04:08:12.429Z,0
2023-04-15T04:08:42.472Z,0
2023-04-15T04:09:12.456Z,0
2023-04-15T04:09:42.462Z,0
2023-04-15T04:10:12.459Z,0
2023-04-15T04:10:42.476Z,0
2023-04-15T04:11:12.479Z,0
2023-04-15T04:11:42.488Z,0
2023-04-15T04:12:12.486Z,0
2023-04-15T04:12:42.496Z,0
2023-04-15T04:13:12.500Z,0
2023-04-15T04:13:42.519Z,0
2023-04-15T04:14:12.521Z,0
2023-04-15T04:14:42.521Z,0
2023-04-15T04:15:12.532Z,0
2023-04-15T04:15:42.569Z,0
2023-04-15T04:16:12.618Z,0
2023-04-15T04:16:42.561Z,0
2023-04-15T04:17:12.573Z,0
2023-04-15T04:17:42.599Z,0
2023-04-15T04:18:12.568Z,0
2023-04-15T04:18:42.599Z,0
2023-04-15T04:19:12.578Z,0
2023-04-15T04:19:42.592Z,0
2023-04-15T04:20:12.603Z,0
2023-04-15T04:20:42.606Z,0
2023-04-15T04:21:12.611Z,0
2023-04-15T04:21:42.613Z,0
2023-04-15T04:22:12.617Z,0
2023-04-15T04:22:42.628Z,0
2023-04-15T04:23:12.624Z,0
2023-04-15T04:23:42.646Z,0
2023-04-15T04:24:12.725Z,0
2023-04-15T04:24:42.652Z,0
2023-04-15T04:25:12.658Z,0
2023-04-15T04:25:42.669Z,0
2023-04-15T04:26:12.677Z,0
2023-04-15T04:26:42.687Z,0
2023-04-15T04:27:12.702Z,0
2023-04-15T04:27:42.710Z,0
2023-04-15T04:28:12.704Z,0
2023-04-15T04:28:42.705Z,0
2023-04-15T04:29:12.718Z,0
2023-04-15T04:29:42.742Z,0
2023-04-15T04:30:42.734Z,0
2023-04-15T04:31:12.743Z,0
2023-04-15T04:31:42.792Z,0
2023-04-15T04:32:12.788Z,0
2023-04-15T04:32:42.804Z,0
2023-04-15T04:33:12.760Z,0
2023-04-15T04:33:42.768Z,0
2023-04-15T04:34:12.769Z,0
2023-04-15T04:34:42.791Z,0
2023-04-15T04:35:12.790Z,0
2023-04-15T04:35:42.804Z,0
2023-04-15T04:36:12.795Z,0
2023-04-15T04:36:42.816Z,0
2023-04-15T04:37:12.828Z,0
2023-04-15T04:37:42.836Z,0
2023-04-15T04:38:12.834Z,0
2023-04-15T04:38:42.854Z,0
2023-04-15T04:39:12.854Z,0
2023-04-15T04:39:42.871Z,0.3
2023-04-15T04:40:12.859Z,0.72
2023-04-15T04:40:42.855Z,0.56
2023-04-15T04:41:12.863Z,1.18
2023-04-15T04:41:18.451Z,2.24
2023-04-15T04:41:42.879Z,1.19
2023-04-15T04:42:12.879Z,2.06
2023-04-15T04:42:30.461Z,2.62
2023-04-15T04:42:42.889Z,2.21
2023-04-15T04:43:12.890Z,1.92
2023-04-15T04:43:42.908Z,2.72
2023-04-15T04:43:44.471Z,6.11
2023-04-15T04:44:10.451Z,4.88
2023-04-15T04:44:12.904Z,4.74
2023-04-15T04:44:16.451Z,2.32
2023-04-15T04:44:42.910Z,2.92
2023-04-15T04:44:46.472Z,2.79
2023-04-15T04:45:12.913Z,3.63
2023-04-15T04:45:30.515Z,4.06
2023-04-15T04:45:42.968Z,4.77
2023-04-15T04:45:49.474Z,2.04
2023-04-15T04:46:12.975Z,4.39
2023-04-15T04:46:33.471Z,2.27
2023-04-15T04:46:42.933Z,3.34
2023-04-15T04:46:51.454Z,4.88
2023-04-15T04:47:12.950Z,3.78
2023-04-15T04:47:38.484Z,2.98
2023-04-15T04:47:43.048Z,2.7
2023-04-15T04:47:56.508Z,5.73
2023-04-15T04:48:12.962Z,2.74
2023-04-15T04:48:43.099Z,3.35
2023-04-15T04:49:00.580Z,3.56
2023-04-15T04:49:12.975Z,2.84
2023-04-15T04:49:23.475Z,4.94
2023-04-15T04:49:53.476Z,5.38
2023-04-15T04:50:04.484Z,5.36
2023-04-15T04:50:12.985Z,2.53
2023-04-15T04:50:26.464Z,4.57
2023-04-15T04:50:56.467Z,3.11
2023-04-15T04:51:09.464Z,4.02
2023-04-15T04:51:12.997Z,3.26
2023-04-15T04:51:29.519Z,4.21
2023-04-15T04:52:05.475Z,3.19
2023-04-15T04:52:13.047Z,3.46
2023-04-15T04:52:32.463Z,4.76
2023-04-15T04:52:43.736Z,4.07
2023-04-15T04:53:13.039Z,4.2
2023-04-15T04:53:17.472Z,4.7
2023-04-15T04:53:36.484Z,4.33
2023-04-15T04:53:46.486Z,3.2
2023-04-15T04:54:13.127Z,4.04
2023-04-15T04:54:21.466Z,4.91
2023-04-15T04:54:38.475Z,3.42
2023-04-15T04:54:50.480Z,4.54
2023-04-15T04:55:17.466Z,3.04
2023-04-15T04:55:22.477Z,4.22
2023-04-15T04:56:00.487Z,3.68
2023-04-15T04:56:19.496Z,4.81
2023-04-15T04:56:36.474Z,3.31
2023-04-15T04:56:42.478Z,5.04
2023-04-15T04:57:26.484Z,3.72
2023-04-15T04:57:43.088Z,5.12
2023-04-15T04:57:47.480Z,4.21
2023-04-15T04:58:11.489Z,4.15
2023-04-15T04:58:27.510Z,5.48
2023-04-15T04:58:43.107Z,5.47
2023-04-15T04:58:55.491Z,4.32
2023-04-15T04:59:43.124Z,6.05
2023-04-15T05:00:13.161Z,5.94
2023-04-15T05:00:43.137Z,5.5
2023-04-15T05:01:13.177Z,5.69
2023-04-15T05:01:43.187Z,5.8
2023-04-15T05:02:13.205Z,5.73
2023-04-15T05:02:43.321Z,5.51
2023-04-15T05:03:13.241Z,5.27
2023-04-15T05:03:43.300Z,5.08
2023-04-15T05:03:46.539Z,4.58
2023-04-15T05:04:13.340Z,4.99
2023-04-15T05:04:58.494Z,3.23
2023-04-15T05:05:13.197Z,5.04
2023-04-15T05:05:20.492Z,3.53
2023-04-15T05:06:04.490Z,5.63
2023-04-15T05:06:13.227Z,2.29
2023-04-15T05:06:40.497Z,6.14
2023-04-15T05:06:47.496Z,4.68
2023-04-15T05:07:13.233Z,4.94
2023-04-15T05:07:19.498Z,2.82
2023-04-15T05:07:43.228Z,4.38
2023-04-15T05:07:50.499Z,3.18
2023-04-15T05:08:13.503Z,4.28
2023-04-15T05:08:20.509Z,2.25
2023-04-15T05:08:43.244Z,3.99
2023-04-15T05:08:55.506Z,4.18
2023-04-15T05:09:17.509Z,2.99
2023-04-15T05:09:22.495Z,4.03
2023-04-15T05:09:43.268Z,4.21
2023-04-15T05:09:57.513Z,2.65
2023-04-15T05:10:19.542Z,4.21
2023-04-15T05:10:24.513Z,5.45
2023-04-15T05:11:20.521Z,4.76
2023-04-15T05:11:25.510Z,2.63
2023-04-15T05:12:13.290Z,2.57
2023-04-15T05:12:22.507Z,5.84
2023-04-15T05:12:28.511Z,4.2
2023-04-15T05:13:13.309Z,2.41
2023-04-15T05:13:29.519Z,1.98
2023-04-15T05:13:34.514Z,3.99
2023-04-15T05:14:13.321Z,5.58
2023-04-15T05:14:35.514Z,5.74
2023-04-15T05:14:43.327Z,5.29
2023-04-15T05:15:13.357Z,5.47
2023-04-15T05:15:43.428Z,5.74
2023-04-15T05:16:13.376Z,5.9
2023-04-15T05:16:43.359Z,5.85
2023-04-15T05:17:13.360Z,5.98
2023-04-15T05:17:43.386Z,5.74
2023-04-15T05:18:13.387Z,4.84
2023-04-15T05:18:43.389Z,5.61
2023-04-15T05:19:13.389Z,5.53
2023-04-15T05:19:16.519Z,4.4
2023-04-15T05:19:43.389Z,3.01
2023-04-15T05:20:13.397Z,2.35
2023-04-15T05:20:16.530Z,5.4
2023-04-15T05:20:43.407Z,3.52
2023-04-15T05:21:13.411Z,4.64
2023-04-15T05:21:43.425Z,4.82
2023-04-15T05:22:13.428Z,3.82
2023-04-15T05:22:43.458Z,4.17
2023-04-15T05:23:13.437Z,4.66
2023-04-15T05:23:19.523Z,5.52
2023-04-15T05:23:44.539Z,5.66
2023-04-15T05:24:13.451Z,4.2
2023-04-15T05:24:43.479Z,4.27
2023-04-15T05:25:13.473Z,4.24
2023-04-15T05:25:43.518Z,4.37
2023-04-15T05:25:59.541Z,5.18
2023-04-15T05:26:13.480Z,4.02
2023-04-15T05:26:16.553Z,2.97
2023-04-15T05:26:22.533Z,4.34
2023-04-15T05:26:43.659Z,2.93
2023-04-15T05:27:13.491Z,4.4
2023-04-15T05:27:26.545Z,2.59
2023-04-15T05:27:46.538Z,3.06
2023-04-15T05:28:13.512Z,5.36
2023-04-15T05:28:32.551Z,3.7
2023-04-15T05:29:13.530Z,3.11
2023-04-15T05:29:37.559Z,4.14
2023-04-15T05:30:13.875Z,5.52
2023-04-15T05:30:43.555Z,5.53
2023-04-15T05:31:13.572Z,5.53
2023-04-15T05:31:43.580Z,5.65
2023-04-15T05:32:13.569Z,5.78
2023-04-15T05:32:43.598Z,6.75
2023-04-15T05:32:43.991Z,6.75
2023-04-15T05:33:13.591Z,6.1
2023-04-15T05:33:43.604Z,5.9
2023-04-15T05:34:10.559Z,6.81
2023-04-15T05:34:13.604Z,6.14
2023-04-15T05:34:43.788Z,6.94
2023-04-15T05:35:13.612Z,6.89
2023-04-15T05:36:07.564Z,8.33
2023-04-15T05:36:12.576Z,6.89
2023-04-15T05:36:13.627Z,7.13
2023-04-15T05:36:43.636Z,7.12
2023-04-15T05:37:13.645Z,7.86
2023-04-15T05:37:43.648Z,8.85
2023-04-15T05:37:47.557Z,8.96
2023-04-15T05:38:13.659Z,9.1
2023-04-15T05:38:43.654Z,7.27
2023-04-15T05:38:47.572Z,10.1
2023-04-15T05:39:13.684Z,10.52
2023-04-15T05:39:43.674Z,11.05
2023-04-15T05:39:55.588Z,9.09
2023-04-15T05:40:43.680Z,11.93
2023-04-15T05:40:46.553Z,12.2
2023-04-15T05:40:58.563Z,11.1
2023-04-15T05:41:32.571Z,11.17
2023-04-15T05:41:43.709Z,11.64
2023-04-15T05:42:13.707Z,12.15
2023-04-15T05:42:17.564Z,12.35
2023-04-15T05:42:43.733Z,12.17
2023-04-15T05:43:13.735Z,12.65
2023-04-15T05:43:23.571Z,10.38
2023-04-15T05:43:43.737Z,13.53
2023-04-15T05:44:13.748Z,12.83
2023-04-15T05:44:43.750Z,13.24
2023-04-15T05:44:50.569Z,11.64
2023-04-15T05:45:13.746Z,14.47
2023-04-15T05:45:43.757Z,15.83
2023-04-15T05:46:13.773Z,16.05
2023-04-15T05:46:43.798Z,16.38
2023-04-15T05:47:13.788Z,15.9
2023-04-15T05:47:43.805Z,16.06
2023-04-15T05:48:13.797Z,16.75
2023-04-15T05:48:17.588Z,16.91
2023-04-15T05:48:43.807Z,16.71
2023-04-15T05:49:13.817Z,16.9
2023-04-15T05:49:37.589Z,17.99
2023-04-15T05:49:43.819Z,18.02
2023-04-15T05:50:13.824Z,18.54
2023-04-15T05:50:25.584Z,19.12
2023-04-15T05:50:40.583Z,20.51
2023-04-15T05:50:43.831Z,20.15
2023-04-15T05:51:13.824Z,20.37
2023-04-15T05:51:17.580Z,20.58
2023-04-15T05:51:34.602Z,15.39
2023-04-15T05:51:43.846Z,22.77
2023-04-15T05:51:59.591Z,21.24
2023-04-15T05:52:13.861Z,21.6
2023-04-15T05:52:43.853Z,22.86
2023-04-15T05:53:05.598Z,23.71
2023-04-15T05:53:13.868Z,23.76
2023-04-15T05:53:43.855Z,24.83
2023-04-15T05:53:50.589Z,25.03
2023-04-15T05:54:13.867Z,25.81
2023-04-15T05:54:28.585Z,26.43
2023-04-15T05:54:43.888Z,27.1
2023-04-15T05:55:05.598Z,27.93
2023-04-15T05:55:13.882Z,27.99
2023-04-15T05:55:17.594Z,26.46
2023-04-15T05:55:29.602Z,28.39
2023-04-15T05:55:43.896Z,29.37
2023-04-15T05:56:13.913Z,30
2023-04-15T05:56:40.614Z,31.69
2023-04-15T05:56:43.926Z,31.68
2023-04-15T05:57:13.928Z,33.32
2023-04-15T05:57:20.612Z,33.37
2023-04-15T05:57:43.928Z,34.5
2023-04-15T05:57:52.592Z,35.25
2023-04-15T05:58:13.941Z,36.01
2023-04-15T05:58:23.624Z,37.24
2023-04-15T05:58:43.936Z,35.76
2023-04-15T05:59:08.607Z,22.72
2023-04-15T05:59:13.949Z,39.87
2023-04-15T05:59:35.605Z,23.93
2023-04-15T05:59:43.950Z,43.01
2023-04-15T06:00:13.961Z,41.79
2023-04-15T06:00:43.993Z,42.5
2023-04-15T06:00:52.594Z,42.99
2023-04-15T06:01:13.963Z,43.52
2023-04-15T06:01:43.982Z,44.35
2023-04-15T06:01:52.698Z,45.38
2023-04-15T06:02:14.010Z,44.89
2023-04-15T06:02:44.108Z,45.75
2023-04-15T06:03:14.057Z,46.51
2023-04-15T06:03:44.111Z,46.37
2023-04-15T06:03:50.664Z,47.81
2023-04-15T06:04:03.706Z,40.8
2023-04-15T06:04:14.085Z,50.79
2023-04-15T06:04:44.062Z,48.36
2023-04-15T06:05:14.028Z,48.43
2023-04-15T06:05:44.041Z,48.86
2023-04-15T06:06:14.045Z,48.87
2023-04-15T06:06:44.062Z,49.54
2023-04-15T06:07:04.617Z,50.78
2023-04-15T06:07:14.059Z,50.31
2023-04-15T06:07:29.621Z,29.1
2023-04-15T06:07:44.718Z,51.71
2023-04-15T06:08:14.073Z,51.86
2023-04-15T06:08:44.083Z,49.74
2023-04-15T06:09:14.089Z,50.31
2023-04-15T06:09:44.110Z,51.12
2023-04-15T06:10:14.093Z,51.55
2023-04-15T06:10:23.631Z,29.45
2023-04-15T06:10:44.122Z,46.19
2023-04-15T06:11:14.107Z,37.48
2023-04-15T06:11:24.615Z,41.23
2023-04-15T06:11:44.130Z,35
2023-04-15T06:11:47.647Z,33.79
2023-04-15T06:12:14.123Z,58.43
2023-04-15T06:12:21.620Z,15.35
2023-04-15T06:12:27.622Z,49.71
2023-04-15T06:12:49.624Z,29.54
2023-04-15T06:13:14.131Z,37.15
2023-04-15T06:13:24.633Z,36.47
2023-04-15T06:13:31.629Z,16.28
2023-04-15T06:13:55.626Z,32.85
2023-04-15T06:14:14.156Z,54.95
2023-04-15T06:14:25.626Z,21.97
2023-04-15T06:14:31.629Z,53.29
2023-04-15T06:15:00.636Z,41.42
2023-04-15T06:15:18.631Z,19.42
2023-04-15T06:15:30.635Z,32.93
2023-04-15T06:15:36.626Z,37.54
2023-04-15T06:16:05.666Z,8.88
2023-04-15T06:16:22.663Z,45.59
2023-04-15T06:16:34.678Z,51.07
2023-04-15T06:16:40.640Z,36.98
2023-04-15T06:16:45.648Z,41.34
2023-04-15T06:17:09.660Z,31.53
2023-04-15T06:17:26.715Z,47.17
2023-04-15T06:17:38.647Z,36.97
2023-04-15T06:17:43.650Z,33.27
2023-04-15T06:17:49.675Z,16.46
2023-04-15T06:18:12.631Z,56.09
2023-04-15T06:18:31.644Z,35.55
2023-04-15T06:18:42.636Z,28.67
2023-04-15T06:18:44.225Z,43.54
2023-04-15T06:18:56.642Z,33.17
2023-04-15T06:19:13.630Z,50.14
2023-04-15T06:19:31.649Z,40.73
2023-04-15T06:19:44.228Z,51.45
2023-04-15T06:20:14.280Z,48.64
2023-04-15T06:20:44.266Z,48.2
2023-04-15T06:21:14.262Z,46.66
2023-04-15T06:21:44.255Z,47.19
2023-04-15T06:22:04.656Z,44.26